Dannelly, Alabama
Current Conditions -  °F | °C
As of 6:07 PM on Friday 19 Dec 2014 (Local Time) from KMXF Reporting Station
Drizzle Drizzle  
Wind Chill:   Ceiling: 8000
Heat Index:   Visibility: 10mi
Dew Point:   Wind: 6mph
Humidity: 93%   Direction: 320°NW
Pressure: 30.17"   Gusts: NA
Location:  32.3488°N, 86.4016°W
Report Text: KMXF 200007Z AUTO 32005KT 10SM -DZ BKN080 08/07 A3017 RMK AO2
Loading
Personal Weather Stations






























Interactive Weather Map New forecast layout! Learn more

10-Day Weather Forecast

Advertisements
Track Severe Weather on mobile